Kellogg, Idaho
Current Conditions -  °F | °C
As of 5:16 PM on Tuesday 21 Oct 2014 (Local Time) from KMLP Reporting Station
Haze Haze  
Wind Chill: 31°   Ceiling: 300
Heat Index: 35°   Visibility: 0.75mi
Dew Point: 35°   Wind: 5mph
Humidity: 100%   Direction: 300°WNW
Pressure: 29.98"   Gusts: NA
Location:  47.54°N, 116.12°W
Report Text: KMLP 220016Z AUTO 30004KT 3/4SM BR BKN003 OVC009 02/02 A2998 RMK AO2 RAE04 P0000 T00170017
Loading
Personal Weather Stations






























Interactive Weather Map
Tropical Storm Tracking
New forecast layout! Learn more

10-Day Weather Forecast

Advertisements
Track Severe Weather on mobile